createdAt,value
2022-08-09T00:00:12.167Z,25.00
2022-08-09T00:02:49.654Z,24.80
2022-08-09T00:06:19.738Z,25.00
2022-08-09T00:08:32.475Z,24.60
2022-08-09T00:11:05.995Z,25.00
2022-08-09T00:13:55.705Z,24.80
2022-08-09T00:16:36.613Z,25.00
2022-08-09T00:19:10.420Z,24.90
2022-08-09T00:21:55.714Z,24.80
2022-08-09T00:24:27.845Z,25.20
2022-08-09T00:27:00.571Z,25.00
2022-08-09T00:30:09.870Z,25.00
2022-08-09T00:32:26.597Z,25.40
2022-08-09T00:34:58.627Z,25.10
2022-08-09T00:37:32.462Z,24.90
2022-08-09T00:40:12.362Z,24.60
2022-08-09T00:44:10.075Z,24.60
2022-08-09T00:45:38.233Z,24.40
2022-08-09T00:48:21.563Z,24.20
2022-08-09T00:50:53.355Z,24.20
2022-08-09T00:53:24.608Z,24.40
2022-08-09T00:56:04.775Z,24.10
2022-08-09T00:58:36.956Z,24.30
2022-08-09T01:01:16.099Z,24.30
2022-08-09T01:04:11.965Z,24.30
2022-08-09T01:07:07.696Z,24.20
2022-08-09T01:10:07.988Z,23.70
2022-08-09T01:13:03.622Z,23.60
2022-08-09T01:15:52.008Z,23.80
2022-08-09T01:18:31.327Z,24.20
2022-08-09T01:21:27.204Z,23.80
2022-08-09T01:24:58.621Z,23.50
2022-08-09T01:27:33.711Z,23.70
2022-08-09T01:30:08.361Z,23.30
2022-08-09T01:33:01.472Z,23.40
2022-08-09T01:35:42.309Z,23.40
2022-08-09T01:38:20.021Z,23.50
2022-08-09T01:41:14.611Z,23.60
2022-08-09T01:43:52.738Z,23.30
2022-08-09T01:46:29.538Z,23.30
2022-08-09T01:49:09.473Z,23.20
2022-08-09T01:51:54.056Z,23.30
2022-08-09T01:54:33.652Z,23.50
2022-08-09T01:57:16.473Z,23.70
2022-08-09T01:59:52.636Z,23.50
2022-08-09T02:02:30.117Z,23.50
2022-08-09T02:05:15.145Z,23.70
2022-08-09T02:08:35.375Z,23.20
2022-08-09T02:10:50.937Z,22.90
2022-08-09T02:13:26.245Z,22.90
2022-08-09T02:16:11.474Z,23.00
2022-08-09T02:18:47.783Z,23.00
2022-08-09T02:21:22.213Z,23.40
2022-08-09T02:23:56.719Z,23.30
2022-08-09T02:26:34.463Z,23.00
2022-08-09T02:29:37.255Z,22.90
2022-08-09T02:32:11.131Z,22.70
2022-08-09T02:34:52.010Z,22.90
2022-08-09T02:37:31.747Z,22.60
2022-08-09T02:40:15.594Z,22.40
2022-08-09T02:42:59.916Z,23.00
2022-08-09T02:45:37.991Z,23.10
2022-08-09T02:48:29.758Z,22.90
2022-08-09T02:51:03.799Z,23.10
2022-08-09T02:53:43.087Z,23.10
2022-08-09T02:56:25.993Z,23.20
2022-08-09T02:59:02.498Z,23.10
2022-08-09T03:01:58.510Z,22.70
2022-08-09T03:04:28.990Z,22.90
2022-08-09T03:07:14.253Z,22.50
2022-08-09T03:09:54.018Z,22.80
2022-08-09T03:12:29.357Z,22.50
2022-08-09T03:15:01.590Z,22.30
2022-08-09T03:17:34.381Z,22.60
2022-08-09T03:20:11.420Z,22.30
2022-08-09T03:22:46.947Z,22.30
2022-08-09T03:25:58.260Z,22.20
2022-08-09T03:28:22.679Z,22.30
2022-08-09T03:30:55.452Z,22.10
2022-08-09T03:33:54.546Z,22.10
2022-08-09T03:36:19.102Z,22.00
2022-08-09T03:38:51.899Z,22.10
2022-08-09T03:41:29.736Z,22.40
2022-08-09T03:44:15.705Z,22.30
2022-08-09T03:46:46.904Z,22.60
2022-08-09T03:49:21.279Z,22.00
2022-08-09T03:52:00.400Z,21.90
2022-08-09T03:54:39.743Z,22.20
2022-08-09T03:57:20.649Z,22.20
2022-08-09T03:59:56.131Z,22.30
2022-08-09T04:02:33.649Z,22.40
2022-08-09T04:05:06.137Z,22.10
2022-08-09T04:07:53.264Z,22.10
2022-08-09T04:10:30.390Z,22.00
2022-08-09T04:13:03.750Z,22.20
2022-08-09T04:15:52.151Z,22.20
2022-08-09T04:18:28.275Z,22.50
2022-08-09T04:20:59.337Z,22.40
2022-08-09T04:23:30.666Z,22.00
2022-08-09T04:26:01.813Z,21.80
2022-08-09T04:28:36.609Z,21.90
2022-08-09T04:31:13.533Z,21.70
2022-08-09T04:33:52.977Z,22.00
2022-08-09T04:36:29.759Z,22.00
2022-08-09T04:39:08.693Z,22.10
2022-08-09T04:41:43.597Z,22.40
2022-08-09T04:44:15.023Z,22.30
2022-08-09T04:46:58.603Z,22.30
2022-08-09T04:49:53.791Z,22.50
2022-08-09T04:52:28.902Z,22.40
2022-08-09T04:55:04.260Z,22.50
2022-08-09T04:57:58.481Z,22.30
2022-08-09T05:00:36.048Z,22.60
2022-08-09T05:03:30.235Z,22.50
2022-08-09T05:06:04.641Z,22.60
2022-08-09T05:08:38.112Z,22.60
2022-08-09T05:11:09.392Z,22.50
2022-08-09T05:13:43.520Z,22.50
2022-08-09T05:16:15.064Z,22.50
2022-08-09T05:18:57.376Z,22.60
2022-08-09T05:21:36.629Z,23.00
2022-08-09T05:24:18.491Z,22.90
2022-08-09T05:26:51.057Z,23.00
2022-08-09T05:29:22.810Z,22.90
2022-08-09T05:32:00.185Z,22.90
2022-08-09T05:34:32.791Z,23.10
2022-08-09T05:37:11.305Z,23.20
2022-08-09T05:39:44.474Z,23.30
2022-08-09T05:42:21.330Z,23.40
2022-08-09T05:44:54.896Z,23.70
2022-08-09T05:47:30.412Z,23.90
2022-08-09T05:50:26.838Z,23.70
2022-08-09T05:52:55.666Z,24.00
2022-08-09T05:55:26.634Z,24.20
2022-08-09T05:57:58.466Z,24.10
2022-08-09T06:00:33.168Z,24.20
2022-08-09T06:03:10.715Z,24.30
2022-08-09T06:05:54.814Z,24.40
2022-08-09T06:08:29.282Z,24.70
2022-08-09T06:11:00.278Z,24.80
2022-08-09T06:13:33.837Z,24.80
2022-08-09T06:16:05.720Z,24.70
2022-08-09T06:18:36.759Z,24.60
2022-08-09T06:21:09.120Z,24.60
2022-08-09T06:23:58.299Z,24.80
2022-08-09T06:26:35.716Z,25.00
2022-08-09T06:29:14.922Z,25.20
2022-08-09T06:32:08.139Z,25.10
2022-08-09T06:34:37.194Z,25.20
2022-08-09T06:37:10.181Z,25.80
2022-08-09T06:39:57.767Z,26.00
2022-08-09T06:42:33.665Z,25.80
2022-08-09T06:46:07.039Z,25.70
2022-08-09T06:48:01.710Z,25.60
2022-08-09T06:50:32.671Z,25.80
2022-08-09T06:53:04.848Z,25.90
2022-08-09T06:55:35.807Z,26.00
2022-08-09T06:58:07.822Z,26.00
2022-08-09T07:00:59.907Z,26.10
2022-08-09T07:03:33.782Z,26.40
2022-08-09T07:06:11.034Z,26.40
2022-08-09T07:08:42.405Z,26.70
2022-08-09T07:11:23.781Z,26.70
2022-08-09T07:14:04.951Z,26.90
2022-08-09T07:16:46.405Z,26.80
2022-08-09T07:19:23.332Z,27.20
2022-08-09T07:21:57.555Z,27.40
2022-08-09T07:24:40.722Z,27.20
2022-08-09T07:27:33.925Z,27.20
2022-08-09T07:30:06.783Z,27.60
2022-08-09T07:32:38.171Z,27.60
2022-08-09T07:35:13.037Z,27.60
2022-08-09T07:37:46.252Z,27.80
2022-08-09T07:40:26.790Z,27.90
2022-08-09T07:43:00.443Z,28.00
2022-08-09T07:45:39.918Z,28.00
2022-08-09T07:48:25.662Z,28.20
2022-08-09T07:51:09.559Z,28.30
2022-08-09T07:54:05.817Z,28.60
2022-08-09T07:56:49.178Z,28.70
2022-08-09T07:59:34.267Z,28.80
2022-08-09T08:02:19.105Z,29.00
2022-08-09T08:04:53.791Z,29.00
2022-08-09T08:08:43.536Z,28.90
2022-08-09T08:10:18.417Z,28.90
2022-08-09T08:12:49.809Z,29.40
2022-08-09T08:15:23.244Z,29.40
2022-08-09T08:17:58.318Z,29.60
2022-08-09T08:20:33.040Z,29.70
2022-08-09T08:23:16.745Z,29.70
2022-08-09T08:25:50.118Z,29.60
2022-08-09T08:28:32.163Z,29.80
2022-08-09T08:31:14.470Z,30.10
2022-08-09T08:33:53.001Z,30.10
2022-08-09T08:36:29.194Z,30.30
2022-08-09T08:39:01.482Z,30.40
2022-08-09T08:41:42.007Z,30.30
2022-08-09T08:44:29.302Z,30.40
2022-08-09T08:47:04.553Z,30.40
2022-08-09T08:49:47.916Z,30.50
2022-08-09T08:55:19.032Z,30.50
2022-08-09T08:57:57.541Z,30.80
2022-08-09T09:00:34.366Z,30.50
2022-08-09T09:03:12.484Z,30.90
2022-08-09T09:06:00.948Z,31.20
2022-08-09T09:08:40.803Z,30.60
2022-08-09T09:11:13.536Z,30.60
2022-08-09T09:13:56.851Z,31.10
2022-08-09T09:16:34.143Z,31.50
2022-08-09T09:19:37.554Z,30.90
2022-08-09T09:22:07.428Z,31.20
2022-08-09T09:24:43.263Z,30.80
2022-08-09T09:28:05.426Z,31.60
2022-08-09T09:30:40.090Z,31.40
2022-08-09T09:33:15.757Z,31.40
2022-08-09T09:36:01.724Z,31.50
2022-08-09T09:38:56.766Z,31.30
2022-08-09T09:41:48.791Z,31.70
2022-08-09T09:44:33.918Z,31.70
2022-08-09T09:47:16.585Z,31.40
2022-08-09T09:50:13.962Z,31.80
2022-08-09T09:52:56.858Z,32.10
2022-08-09T09:55:33.223Z,32.40
2022-08-09T09:58:16.879Z,32.20
2022-08-09T10:01:31.036Z,32.30
2022-08-09T10:04:00.786Z,32.10
2022-08-09T10:06:47.253Z,32.60
2022-08-09T10:09:24.200Z,32.20
2022-08-09T10:12:14.199Z,32.50
2022-08-09T10:15:17.736Z,32.80
2022-08-09T10:18:11.203Z,33.00
2022-08-09T10:20:45.119Z,32.90
2022-08-09T10:23:22.804Z,32.70
2022-08-09T10:26:08.203Z,33.00
2022-08-09T10:28:48.657Z,32.60
2022-08-09T10:34:32.890Z,33.30
2022-08-09T10:37:04.550Z,32.40
2022-08-09T10:39:49.133Z,33.10
2022-08-09T10:42:27.071Z,33.60
2022-08-09T10:45:10.679Z,33.80
2022-08-09T10:48:19.530Z,33.70
2022-08-09T10:51:14.790Z,33.50
2022-08-09T10:54:04.942Z,33.60
2022-08-09T10:56:39.189Z,33.60
2022-08-09T10:59:31.089Z,34.00
2022-08-09T11:03:14.512Z,33.90
2022-08-09T11:05:24.577Z,33.90
2022-08-09T11:07:59.250Z,33.40
2022-08-09T11:10:53.303Z,33.90
2022-08-09T11:13:50.272Z,34.10
2022-08-09T11:16:38.581Z,35.00
2022-08-09T11:19:11.375Z,34.70
2022-08-09T11:22:05.204Z,35.50
2022-08-09T11:24:58.187Z,36.40
2022-08-09T11:28:04.173Z,36.40
2022-08-09T11:30:38.039Z,36.20
2022-08-09T11:33:19.018Z,37.50
2022-08-09T11:36:01.549Z,38.60
2022-08-09T11:38:41.544Z,37.40
2022-08-09T11:41:13.631Z,37.60
2022-08-09T11:43:49.594Z,36.80
2022-08-09T11:46:26.547Z,36.50
2022-08-09T11:49:04.935Z,37.30
2022-08-09T11:53:02.536Z,37.80
2022-08-09T11:55:52.086Z,37.50
2022-08-09T11:58:32.448Z,37.20
2022-08-09T12:01:08.603Z,38.20
2022-08-09T12:03:57.552Z,37.40
2022-08-09T12:06:32.167Z,37.50
2022-08-09T12:09:15.074Z,38.00
2022-08-09T12:12:13.225Z,36.50
2022-08-09T12:15:08.262Z,37.20
2022-08-09T12:17:51.985Z,37.50
2022-08-09T12:20:27.409Z,37.00
2022-08-09T12:23:01.770Z,37.10
2022-08-09T12:25:37.391Z,36.50
2022-08-09T12:29:10.360Z,36.90
2022-08-09T12:31:58.122Z,37.60
2022-08-09T12:34:12.911Z,37.70
2022-08-09T12:36:59.109Z,38.20
2022-08-09T12:40:10.762Z,37.80
2022-08-09T12:42:45.324Z,37.30
2022-08-09T12:45:34.787Z,37.70
2022-08-09T12:48:11.037Z,37.40
2022-08-09T12:51:00.131Z,38.20
2022-08-09T12:53:44.647Z,37.50
2022-08-09T12:56:44.052Z,38.80
2022-08-09T12:59:20.548Z,38.50
2022-08-09T13:02:07.200Z,37.60
2022-08-09T13:04:40.677Z,39.00
2022-08-09T13:07:20.024Z,39.80
2022-08-09T13:10:05.307Z,38.80
2022-08-09T13:13:09.136Z,39.10
2022-08-09T13:16:05.360Z,39.40
2022-08-09T13:18:53.491Z,39.50
2022-08-09T13:22:38.457Z,39.10
2022-08-09T13:24:44.739Z,38.10
2022-08-09T13:27:40.237Z,38.20
2022-08-09T13:30:48.859Z,38.80
2022-08-09T13:33:53.210Z,39.60
2022-08-09T13:36:24.355Z,39.40
2022-08-09T13:41:17.271Z,39.10
2022-08-09T13:42:12.542Z,38.80
2022-08-09T13:44:46.216Z,39.30
2022-08-09T13:47:31.245Z,39.40
2022-08-09T13:50:18.056Z,39.30
2022-08-09T13:53:01.786Z,39.70
2022-08-09T13:55:34.799Z,39.50
2022-08-09T13:58:11.903Z,39.30
2022-08-09T14:00:50.611Z,39.40
2022-08-09T14:04:01.436Z,39.70
2022-08-09T14:06:25.600Z,40.00
2022-08-09T14:09:00.577Z,39.30
2022-08-09T14:11:33.308Z,39.50
2022-08-09T14:14:23.804Z,38.80
2022-08-09T14:16:58.629Z,39.30
2022-08-09T14:19:33.352Z,39.20
2022-08-09T14:22:04.733Z,39.30
2022-08-09T14:24:35.796Z,39.60
2022-08-09T14:27:20.407Z,39.50
2022-08-09T14:30:34.904Z,40.00
2022-08-09T14:32:42.837Z,39.60
2022-08-09T14:35:13.992Z,40.00
2022-08-09T14:38:03.085Z,39.90
2022-08-09T14:41:00.956Z,40.50
2022-08-09T14:43:26.412Z,40.70
2022-08-09T14:46:54.647Z,39.90
2022-08-09T14:49:10.571Z,39.10
2022-08-09T14:51:42.544Z,39.50
2022-08-09T14:54:15.654Z,39.30
2022-08-09T14:56:57.650Z,39.30
2022-08-09T14:59:29.806Z,38.90
2022-08-09T15:02:01.621Z,39.90
2022-08-09T15:04:33.618Z,40.00
2022-08-09T15:07:04.634Z,40.20
2022-08-09T15:10:07.627Z,39.90
2022-08-09T15:12:32.500Z,39.40
2022-08-09T15:15:04.429Z,40.30
2022-08-09T15:17:42.693Z,41.00
2022-08-09T15:21:53.800Z,41.00
2022-08-09T15:24:02.198Z,40.30
2022-08-09T15:26:01.569Z,40.60
2022-08-09T15:28:33.241Z,40.10
2022-08-09T15:31:09.865Z,39.80
2022-08-09T15:34:27.431Z,39.30
2022-08-09T15:36:34.257Z,40.30
2022-08-09T15:39:05.219Z,41.10
2022-08-09T15:41:37.056Z,39.70
2022-08-09T15:44:14.165Z,40.00
2022-08-09T15:46:50.664Z,39.80
2022-08-09T15:49:23.912Z,40.50
2022-08-09T15:52:02.902Z,40.70
2022-08-09T15:54:49.181Z,40.20
2022-08-09T15:57:35.887Z,39.70
2022-08-09T16:00:26.176Z,39.90
2022-08-09T16:02:58.148Z,39.20
2022-08-09T16:05:47.659Z,39.90
2022-08-09T16:08:29.634Z,39.90
2022-08-09T16:11:03.720Z,39.30
2022-08-09T16:14:02.581Z,39.80
2022-08-09T16:16:28.380Z,40.20
2022-08-09T16:18:59.458Z,41.20
2022-08-09T16:21:31.729Z,40.00
2022-08-09T16:24:13.087Z,39.90
2022-08-09T16:27:02.245Z,40.10
2022-08-09T16:29:37.442Z,40.40
2022-08-09T16:32:34.217Z,40.00
2022-08-09T16:35:19.259Z,40.70
2022-08-09T16:38:08.848Z,40.80
2022-08-09T16:40:41.311Z,40.20
2022-08-09T16:43:12.393Z,40.30
2022-08-09T16:45:45.484Z,41.00
2022-08-09T16:48:41.898Z,41.40
2022-08-09T16:51:13.710Z,40.90
2022-08-09T16:54:24.913Z,40.00
2022-08-09T16:56:38.138Z,39.60
2022-08-09T16:59:20.384Z,40.20
2022-08-09T17:01:52.995Z,39.60
2022-08-09T17:04:25.546Z,39.40
2022-08-09T17:08:40.829Z,39.00
2022-08-09T17:09:50.367Z,39.30
2022-08-09T17:12:21.388Z,38.40
2022-08-09T17:14:58.182Z,38.30
2022-08-09T17:17:30.593Z,39.60
2022-08-09T17:20:33.048Z,39.50
2022-08-09T17:23:10.418Z,39.40
2022-08-09T17:25:53.200Z,40.10
2022-08-09T17:28:24.425Z,39.70
2022-08-09T17:30:58.007Z,39.40
2022-08-09T17:33:29.035Z,39.40
2022-08-09T17:36:09.166Z,39.10
2022-08-09T17:38:57.545Z,39.40
2022-08-09T17:41:38.836Z,38.40
2022-08-09T17:44:41.741Z,37.80
2022-08-09T17:47:04.097Z,37.60
2022-08-09T17:49:35.297Z,37.50
2022-08-09T17:52:06.564Z,37.50
2022-08-09T17:54:51.946Z,37.60
2022-08-09T17:58:02.601Z,37.20
2022-08-09T18:00:14.390Z,36.80
2022-08-09T18:02:58.068Z,36.80
2022-08-09T18:05:43.331Z,36.50
2022-08-09T18:08:14.913Z,36.20
2022-08-09T18:11:02.172Z,35.80
2022-08-09T18:13:38.643Z,35.80
2022-08-09T18:16:12.221Z,35.50
2022-08-09T18:18:48.953Z,35.80
2022-08-09T18:21:23.747Z,35.50
2022-08-09T18:24:10.173Z,35.60
2022-08-09T18:26:46.972Z,35.70
2022-08-09T18:30:35.443Z,35.30
2022-08-09T18:32:10.637Z,35.10
2022-08-09T18:34:41.617Z,35.10
2022-08-09T18:37:48.138Z,34.70
2022-08-09T18:40:04.214Z,34.60
2022-08-09T18:42:35.291Z,34.50
2022-08-09T18:45:08.400Z,34.30
2022-08-09T18:47:40.448Z,34.60
2022-08-09T18:50:12.332Z,34.40
2022-08-09T18:52:44.905Z,34.10
2022-08-09T18:55:45.382Z,34.00
2022-08-09T18:58:12.763Z,33.70
2022-08-09T19:01:02.781Z,33.70
2022-08-09T19:03:38.453Z,33.70
2022-08-09T19:06:24.639Z,33.50
2022-08-09T19:09:02.627Z,33.60
2022-08-09T19:11:37.960Z,33.50
2022-08-09T19:14:12.469Z,33.30
2022-08-09T19:16:49.979Z,33.00
2022-08-09T19:19:25.568Z,33.10
2022-08-09T19:22:06.172Z,32.80
2022-08-09T19:25:09.852Z,32.80
2022-08-09T19:27:30.266Z,32.80
2022-08-09T19:30:23.219Z,32.70
2022-08-09T19:32:53.680Z,32.80
2022-08-09T19:35:26.774Z,32.50
2022-08-09T19:37:58.122Z,32.30
2022-08-09T19:40:33.938Z,32.20
2022-08-09T19:43:16.412Z,32.40
2022-08-09T19:45:59.686Z,32.30
2022-08-09T19:49:00.911Z,32.50
2022-08-09T19:51:37.840Z,32.10
2022-08-09T19:54:08.904Z,31.80
2022-08-09T19:56:44.721Z,31.60
2022-08-09T19:59:39.746Z,31.50
2022-08-09T20:03:23.942Z,31.20
2022-08-09T20:05:01.433Z,31.30
2022-08-09T20:07:57.064Z,31.20
2022-08-09T20:10:34.780Z,31.30
2022-08-09T20:13:09.307Z,31.10
2022-08-09T20:16:34.445Z,31.00
2022-08-09T20:18:31.279Z,30.90
2022-08-09T20:21:02.442Z,31.10
2022-08-09T20:23:38.821Z,31.00
2022-08-09T20:26:12.961Z,30.60
2022-08-09T20:28:48.456Z,30.50
2022-08-09T20:31:25.549Z,30.50
2022-08-09T20:34:02.073Z,30.60
2022-08-09T20:36:33.409Z,30.80
2022-08-09T20:40:13.682Z,30.70
2022-08-09T20:41:56.469Z,30.60
2022-08-09T20:44:30.384Z,30.20
2022-08-09T20:47:06.925Z,30.30
2022-08-09T20:49:57.816Z,29.90
2022-08-09T20:52:28.724Z,29.70
2022-08-09T20:55:11.561Z,29.90
2022-08-09T20:58:05.172Z,29.80
2022-08-09T21:00:38.076Z,29.60
2022-08-09T21:03:16.782Z,29.40
2022-08-09T21:05:59.659Z,29.40
2022-08-09T21:08:36.371Z,29.30
2022-08-09T21:14:00.166Z,29.30
2022-08-09T21:16:31.425Z,29.20
2022-08-09T21:20:18.201Z,29.10
2022-08-09T21:21:57.542Z,29.10
2022-08-09T21:24:32.677Z,29.10
2022-08-09T21:27:50.353Z,29.10
2022-08-09T21:29:56.123Z,28.80
2022-08-09T21:32:33.322Z,28.90
2022-08-09T21:35:05.273Z,28.90
2022-08-09T21:37:47.087Z,28.70
2022-08-09T21:40:30.577Z,28.90
2022-08-09T21:43:04.201Z,28.80
2022-08-09T21:45:39.274Z,28.80
2022-08-09T21:48:11.226Z,28.70
2022-08-09T21:50:49.769Z,28.60
2022-08-09T21:53:40.341Z,28.50
2022-08-09T21:56:28.326Z,28.10
2022-08-09T21:59:03.127Z,28.40
2022-08-09T22:01:58.568Z,28.60
2022-08-09T22:04:55.733Z,28.50
2022-08-09T22:07:34.983Z,28.30
2022-08-09T22:10:09.476Z,28.10
2022-08-09T22:12:41.885Z,28.30
2022-08-09T22:15:23.548Z,28.30
2022-08-09T22:18:12.120Z,28.20
2022-08-09T22:20:43.586Z,28.30
2022-08-09T22:23:17.091Z,28.20
2022-08-09T22:26:08.430Z,28.10
2022-08-09T22:28:43.632Z,28.00
2022-08-09T22:31:25.533Z,27.90
2022-08-09T22:34:00.182Z,28.00
2022-08-09T22:36:45.443Z,28.30
2022-08-09T22:39:47.110Z,28.20
2022-08-09T22:42:21.443Z,28.20
2022-08-09T22:45:02.465Z,28.10
2022-08-09T22:48:10.522Z,28.10
2022-08-09T22:50:37.921Z,28.20
2022-08-09T22:53:08.833Z,28.10
2022-08-09T22:56:29.755Z,28.30
2022-08-09T22:58:33.573Z,28.10
2022-08-09T23:01:06.345Z,28.20
2022-08-09T23:04:03.243Z,28.10
2022-08-09T23:06:48.430Z,28.10
2022-08-09T23:09:19.732Z,28.10
2022-08-09T23:11:50.691Z,27.90
2022-08-09T23:14:37.541Z,28.00
2022-08-09T23:17:13.392Z,28.10
2022-08-09T23:20:00.560Z,28.10
2022-08-09T23:22:35.856Z,28.10
2022-08-09T23:25:07.670Z,28.30
2022-08-09T23:27:57.334Z,28.10
2022-08-09T23:30:29.572Z,28.10
2022-08-09T23:33:00.497Z,28.00
2022-08-09T23:35:31.457Z,28.20
2022-08-09T23:38:22.748Z,28.00
2022-08-09T23:40:54.710Z,28.30
2022-08-09T23:43:25.645Z,28.00
2022-08-09T23:45:56.647Z,28.00
2022-08-09T23:48:27.612Z,27.80
2022-08-09T23:50:58.681Z,28.20
2022-08-09T23:53:37.527Z,28.00
2022-08-09T23:56:09.095Z,27.70
2022-08-09T23:58:40.085Z,27.70
